Flight Track Log - Related Links

Times and Time Zones

All times are in EDT time to prevent confusion due to time zone crossing. See the CTL62 flight status page for this flight to view local times or setup timezone preferences in your user account.

Time Position Orientation Groundspeed Altitude Reporting Facility
EDT Latitude Longitude Course Direction KTS MPH feet Rate Location/Type
Sat 02:14:10 AM 42.1461 -87.7928 97° East 127 146 2,900  Level Chicago Center
Sat 02:15:10 AM 42.1483 -87.7528 86° East 114 131 3,700 793 Climbing Chicago Center
Sat 02:16:11 AM 42.1486 -87.7128 89° East 108 124 4,500 645 Climbing Chicago Center
Sat 02:17:11 AM 42.1469 -87.6747 93° East 103 119 5,000 550 Climbing Chicago Center
Sat 02:18:00 AM 41.9686 -87.5410 109° East  Level FlightAware Approximate
Sat 02:18:11 AM 42.1469 -87.6311 90° East 113 130 5,600  Level Chicago Center
Sat 02:19:11 AM 42.1392 -87.5858 103° East 125 144 6,200 600 Climbing Chicago Center
Sat 02:20:11 AM 42.1194 -87.5461 124° Southeast 127 146 6,800 397 Climbing Chicago Center
Sat 02:21:12 AM 42.0992 -87.5061 124° Southeast 131 151 7,000 99 Climbing Chicago Center
Sat 02:22:12 AM 42.0775 -87.4508 118° Southeast 162 186 7,000  Level Chicago Center
Sat 02:23:12 AM 42.0525 -87.3917 120° Southeast 179 206 7,000  Level Chicago Center
Sat 02:24:12 AM 42.0283 -87.3356 120° Southeast 176 203 7,000 50 Level Chicago Center
Sat 02:25:12 AM 42.0036 -87.2756 119° Southeast 180 207 7,100  Climbing Chicago Center
Sat 02:26:12 AM 41.9764 -87.2164 122° Southeast 184 212 7,000 -99 Descending Chicago Center
Sat 02:27:13 AM 41.9483 -87.1572 123° Southeast 188 216 6,900  Descending Chicago Center
Sat 02:28:13 AM 41.9172 -87.1006 126° Southeast 188 216 7,000 50 Climbing Chicago Center
Sat 02:29:13 AM 41.8942 -87.0383 116° Southeast 187 215 7,000  Level Chicago Center
Sat 02:30:13 AM 41.8689 -86.9769 119° Southeast 189 217 7,000  Level Chicago Center
Sat 02:31:13 AM 41.8442 -86.9175 119° Southeast 185 213 7,000  Level Chicago Center
Sat 02:32:13 AM 41.8164 -86.8597 123° Southeast 185 213 7,000 50 Level Chicago Center
Sat 02:33:13 AM 41.7853 -86.7897 121° Southeast 184 212 7,100  Climbing Chicago Center
Sat 02:34:14 AM 41.7583 -86.7297 121° Southeast 188 216 7,000 -50 Descending Chicago Center
Sat 02:35:14 AM 41.7369 -86.6800 120° Southeast 187 215 7,000  Level Chicago Center
Sat 02:36:14 AM 41.7097 -86.6225 122° Southeast 184 212 7,000  Level Chicago Center
Sat 02:37:14 AM 41.6850 -86.5656 120° Southeast 180 207 7,000  Level Chicago Center
Sat 02:38:14 AM 41.6581 -86.5061 121° Southeast 185 213 7,000 -50 Level Chicago Center
Sat 02:39:15 AM 41.6325 -86.4478 120° Southeast 182 209 6,900 -50 Descending Chicago Center
Sat 02:40:15 AM 41.6075 -86.3867 119° Southeast 186 214 6,900 50 Level Chicago Center
Sat 02:41:15 AM 41.5794 -86.3283 123° Southeast 185 213 7,000 100 Climbing Chicago Center
Sat 02:42:15 AM 41.5481 -86.2589 121° Southeast 183 211 7,100 50 Climbing Chicago Center
Sat 02:43:15 AM 41.5206 -86.2000 122° Southeast 186 214 7,100 -50 Level Chicago Center
Sat 02:44:15 AM 41.4931 -86.1394 121° Southeast 190 219 7,000  Descending Chicago Center
Sat 02:45:15 AM 41.4658 -86.0800 121° Southeast 190 219 7,100  Climbing Chicago Center
Sat 02:46:16 AM 41.4394 -86.0203 121° Southeast 188 216 7,000 -50 Descending Chicago Center
Sat 02:47:16 AM 41.4122 -85.9594 121° Southeast 191 220 7,000  Level Chicago Center
Sat 02:48:16 AM 41.3856 -85.8994 121° Southeast 190 219 7,000  Level Chicago Center
Sat 02:49:16 AM 41.3583 -85.8381 121° Southeast 190 219 7,000  Level Chicago Center
Sat 02:50:16 AM 41.3311 -85.7783 121° Southeast 191 220 7,000 -50 Level Chicago Center
Sat 02:51:16 AM 41.3036 -85.7203 122° Southeast 189 217 6,900 -50 Descending Chicago Center
Sat 02:52:17 AM 41.2764 -85.6614 122° Southeast 188 216 6,900 50 Level Chicago Center
Sat 02:53:17 AM 41.2506 -85.6014 120° Southeast 188 216 7,000 100 Climbing Chicago Center
Sat 02:54:17 AM 41.2242 -85.5406 120° Southeast 191 220 7,100  Climbing Chicago Center
Sat 02:55:17 AM 41.1994 -85.4842 120° Southeast 180 207 7,000 -50 Descending Chicago Center
Sat 02:56:17 AM 41.1731 -85.4250 121° Southeast 184 212 7,000 -50 Level Chicago Center
Sat 02:57:17 AM 41.1461 -85.3644 121° Southeast 189 217 6,900  Descending Chicago Center
Sat 02:58:18 AM 41.1194 -85.3047 121° Southeast 189 217 7,000 49 Climbing Chicago Center
Sat 02:59:19 AM 41.0931 -85.2425 119° Southeast 193 222 7,000  Level Chicago Center
Sat 03:00:19 AM 41.0669 -85.1856 121° Southeast 187 215 7,000  Level Chicago Center
Sat 03:01:19 AM 41.0403 -85.1281 122° Southeast 185 213 7,000 50 Level Chicago Center
Sat 03:02:19 AM 41.0161 -85.0675 118° Southeast 185 213 7,100 50 Climbing Chicago Center
Sat 03:03:19 AM 40.9894 -85.0100 122° Southeast 184 212 7,100 50 Level Chicago Center
Sat 03:04:20 AM 40.9647 -84.9519 119° Southeast 183 211 7,200 -50 Climbing Chicago Center
Sat 03:05:20 AM 40.9367 -84.8936 122° Southeast 185 213 7,000 -100 Descending Chicago Center
Sat 03:06:20 AM 40.9108 -84.8364 121° Southeast 184 212 7,000 -50 Level Chicago Center
Sat 03:07:20 AM 40.8847 -84.7819 122° Southeast 179 206 6,900 -58 Descending Chicago Center
Sat 03:08:03 AM 40.8647 -84.7408 123° Southeast 181 208 6,900 58 Level Indianapolis Center
Sat 03:09:03 AM 40.8406 -84.6844 120° Southeast 179 206 7,000 50 Climbing Indianapolis Center
Sat 03:10:03 AM 40.8167 -84.6281 119° Southeast 180 207 7,000  Level Indianapolis Center
Sat 03:11:03 AM 40.7928 -84.5733 120° Southeast 179 206 7,000  Level Indianapolis Center
Sat 03:12:39 AM 40.7481 -84.4786 122° Southeast 160 184 7,000 38 Level Indianapolis Center
Sat 03:13:40 AM 40.7164 -84.4181 125° Southeast 182 209 7,100  Climbing Indianapolis Center
Sat 03:14:48 AM 40.6842 -84.3486 121° Southeast 185 213 7,000 -47 Descending Indianapolis Center
Sat 03:15:49 AM 40.6564 -84.2911 122° Southeast 187 215 7,000  Level Indianapolis Center
Sat 03:16:49 AM 40.6289 -84.2336 122° Southeast 183 211 7,000  Level Indianapolis Center
Sat 03:17:50 AM 40.6036 -84.1736 119° Southeast 185 213 7,000 49 Level Indianapolis Center
Sat 03:18:51 AM 40.5825 -84.1147 115° Southeast 188 216 7,100 -50 Climbing Indianapolis Center
Sat 03:19:51 AM 40.5544 -84.0600 124° Southeast 177 204 6,900 -50 Descending Indianapolis Center
Sat 03:20:52 AM 40.5264 -84.0053 124° Southeast 177 204 7,000 50 Climbing Indianapolis Center
Sat 03:21:52 AM 40.4986 -83.9481 123° Southeast 180 207 7,000  Level Indianapolis Center
Sat 03:22:53 AM 40.4756 -83.8861 116° Southeast 181 208 7,000  Level Indianapolis Center
Sat 03:23:54 AM 40.4631 -83.8233 105° East 185 213 7,000 52 Level Indianapolis Center
Sat 03:24:48 AM 40.4364 -83.7747 126° Southeast 174 200 7,100 52 Climbing Indianapolis Center
Sat 03:25:49 AM 40.4033 -83.7278 133° Southeast 179 206 7,100  Level Indianapolis Center
Sat 03:26:49 AM 40.3775 -83.6711 121° Southeast 185 213 7,100 -50 Level Indianapolis Center
Sat 03:27:50 AM 40.3500 -83.6114 121° Southeast 188 216 7,000 -94 Descending Indianapolis Center
Sat 03:28:57 AM 40.3161 -83.5506 126° Southeast 185 213 6,900 -331 Descending Indianapolis Center
Sat 03:29:57 AM 40.2867 -83.4881 122° Southeast 206 237 6,300 -626 Descending Indianapolis Center
Sat 03:30:52 AM 40.2564 -83.4308 125° Southeast 202 232 5,700 -678 Descending Indianapolis Center
Sat 03:31:52 AM 40.2244 -83.3706 125° Southeast 201 231 5,000 -843 Descending Indianapolis Center
Sat 03:32:53 AM 40.1928 -83.3078 123° Southeast 203 234 4,000 -836 Descending Indianapolis Center
Sat 03:33:54 AM 40.1603 -83.2531 128° Southeast 195 224 3,300 -645 Descending Indianapolis Center
Sat 03:34:54 AM 40.1272 -83.2064 133° Southeast 177 204 2,700 -600 Descending Indianapolis Center
Sat 03:36:00 AM 40.1006 -83.1450 119° Southeast  Level FlightAware Approximate
Sat 03:43:00 AM 40.0798 -83.0732 123° Southeast  Level Estimated
Sat 03:44:00 AM 40.0798 -83.0732 123° Southeast  Level Estimated
Sat 03:45:00 AM 40.0798 -83.0732 123° Southeast  Level Estimated

Login

Don't have an account? Register now (free) for customized features, flight alerts, and more!